Downstream station:
SHEF ID: GCSO2 Cave Springs Br nr South W C
STATION TYPE:
STAGE STAGE(2) RIV-FLOW BAT-LOAD
ft ft cfs volt
Ccp-Rev Ccp-Rev Ccp-Rev Ccp-Rev
(US/Central)
04/05 00:00 3.06 4.68 0 12.33
04/05 01:00 3.06 4.67 0 12.25
04/05 02:00 3.08 4.68 0 12.25
04/05 03:00 3.10 4.67 0 12.25
04/05 04:00 3.08 4.67 0 12.25
04/05 05:00 3.02 4.67 0 12.25
04/05 06:00 3.00 4.66 0 12.25
04/05 07:00 2.98 4.68 0 12.25
04/05 08:00 3.04 4.67 0 12.25
04/05 09:00 3.17 4.67 0 12.33
04/05 10:00 3.31 4.67 0 12.33
04/05 11:00 3.74 4.68 0 12.65
04/05 12:00 4.38 4.66 2 13.21
04/05 13:00 4.50 4.66 4 13.37
04/05 14:00 4.49 4.66 4 13.29
04/05 15:00 4.48 4.66 4 13.21
04/05 16:00 4.45 4.67 3 13.05
04/05 17:00 4.49 4.66 4 13.37
04/05 18:00 4.48 4.66 4 13.29
04/05 19:00 4.21 4.67 1 13.29
04/05 20:00 3.93 4.66 0 12.89
04/05 21:00 3.71 4.68 0 12.57
04/05 22:00 3.52 4.67 0 12.57
04/05 23:00 3.48 4.67 0 12.49